• Join FlightAware (Why Join?)
  • Login
  • US Flag 
09:41PM EST


 

Airport Tracker/Info


-or-


 

Live Flight TrackerFlight Track Log ✈ N400DE ✈ 30-Sep-2009 ✈ KGRR - KMIE

Flight Track Log - Related Links

Times and Time Zones

All times are in EDT time to prevent confusion due to time zone crossing. See the N400DE flight status page for this flight to view local times or setup timezone preferences in your user account.

Time Position Orientation Groundspeed Altitude Reporting Facility
EDT Latitude Longitude Course Direction KTS MPH feet Rate Location/Type
09:44AM 42.9506 -85.5458 346° North 25,000  Level Chicago Center
09:45AM 42.9864 -85.5578 353° North 122 140 3,800 -10,500 Descending Chicago Center
09:46AM 43.0242 -85.5639 346° North 122 140 4,100 240 Climbing Chicago Center
09:47AM 43.0661 -85.5783 359° North 141 162 4,300 600 Climbing Chicago Center
09:48AM 43.1017 -85.5792 North 141 162 5,300 960 Climbing Chicago Center
09:49AM 43.1350 -85.5772 359° North 131 151 6,300 1,020 Climbing Chicago Center
09:50AM 43.1642 -85.5781 North 117 135 7,400 1,020 Climbing Chicago Center
09:51AM 43.1914 -85.5767 359° North 105 121 8,400 960 Climbing Chicago Center
09:52AM 43.2225 -85.5775 North 105 121 9,400 1,020 Climbing Chicago Center
09:53AM 43.2497 -85.5758 358° North 105 121 10,500 1,020 Climbing Chicago Center
09:54AM 43.2789 -85.5769 358° North 105 121 11,500 900 Climbing Chicago Center
09:55AM 43.3039 -85.5783 North 105 121 12,400 1,020 Climbing Chicago Center
09:56AM 43.3303 -85.5753 360° North 99 114 13,400 900 Climbing Minneapolis Center
09:57AM 43.3511 -85.5753 358° North 99 114 14,100 900 Climbing Minneapolis Center
09:58AM 43.3825 -85.5769 North 99 114 15,200 900 Climbing Minneapolis Center
09:59AM 43.4053 -85.5739 North 99 114 15,900 780 Climbing Minneapolis Center
10:00AM 43.4303 -85.5733 360° North 94 108 16,800 900 Climbing Minneapolis Center
10:01AM 43.4533 -85.5731 360° North 84 97 17,700 720 Climbing Minneapolis Center
10:02AM 43.4783 -85.5728 North 84 97 18,300 660 Climbing Minneapolis Center
10:03AM 43.5033 -85.5722 356° North 84 97 19,100 780 Climbing Minneapolis Center
10:04AM 43.5264 -85.5747 North 84 97 19,900 780 Climbing Minneapolis Center
10:05AM 43.5492 -85.5717 North 84 97 20,700 840 Climbing Minneapolis Center
10:06AM 43.5722 -85.5714 360° North 84 97 21,600 780 Climbing Minneapolis Center
10:07AM 43.5953 -85.5714 360° North 84 97 22,300 720 Climbing Minneapolis Center
10:08AM 43.6161 -85.5714 North 84 97 23,100 720 Climbing Minneapolis Center
10:09AM 43.6347 -85.5689 359° North 79 91 23,800 600 Climbing Minneapolis Center
10:10AM 43.6514 -85.5694 357° North 72 83 24,300 540 Climbing Minneapolis Center
10:11AM 43.6661 -85.5703 358° North 60 69 24,900 300 Climbing Minneapolis Center
10:12AM 43.6828 -85.5711 North 60 69 25,000  Climbing Minneapolis Center
10:13AM 43.7156 -85.5636 North 80 92 25,000  Level Minneapolis Center
10:14AM 43.7447 -85.5628 357° North 92 106 25,000  Level Minneapolis Center
10:15AM 43.7722 -85.5647 North 97 112 25,000  Level Minneapolis Center
10:16AM 43.8033 -85.5636 355° North 104 120 25,000  Level Minneapolis Center
10:17AM 43.8369 -85.5675 North 109 125 25,000  Level Minneapolis Center
10:18AM 43.8767 -85.5650 North 122 140 25,000  Level Minneapolis Center
10:19AM 43.9139 -85.5631 359° North 127 146 25,000  Level Minneapolis Center
10:20AM 43.9517 -85.5636 360° North 132 152 25,000  Level Minneapolis Center
10:21AM 43.9914 -85.5639 North 137 158 25,000  Level Minneapolis Center
10:22AM 44.0308 -85.5617 357° North 137 158 25,000  Level Minneapolis Center
10:23AM 44.0728 -85.5644 North 142 163 25,000  Level Minneapolis Center
10:24AM 44.1039 -85.5603 North 142 163 25,000  Level Minneapolis Center
10:25AM 44.1433 -85.5578 359° North 142 163 25,000  Level Minneapolis Center
10:26AM 44.1808 -85.5586 360° North 142 163 25,000  Level Minneapolis Center
10:27AM 44.2206 -85.5589 North 142 163 25,000  Level Minneapolis Center
10:28AM 44.2600 -85.5564 North 142 163 25,000  Level Minneapolis Center
10:29AM 44.2956 -85.5544 360° North 142 163 25,000  Level Minneapolis Center
10:30AM 44.3353 -85.5547 359° North 142 163 25,000  Level Minneapolis Center
10:31AM 44.3750 -85.5553 North 142 163 25,000  Level Minneapolis Center
10:32AM 44.4144 -85.5528 360° North 142 163 25,000  Level Minneapolis Center
10:33AM 44.4542 -85.5531 North 142 163 25,000  Level Minneapolis Center
10:34AM 44.4936 -85.5506 359° North 142 163 25,000  Level Minneapolis Center
10:35AM 44.5311 -85.5511 North 142 163 25,000  Level Minneapolis Center
10:36AM 44.5686 -85.5489 North 142 163 25,000  Level Minneapolis Center
10:37AM 44.6061 -85.5467 359° North 142 163 25,000 -7,080 Level Minneapolis Center
10:38AM 44.6436 -85.5472 North 142 163 11,000  Descending Minneapolis Center
10:39AM 44.6828 -85.5392 114° Southeast 142 163 25,000 6,900 Climbing Minneapolis Center
10:40AM 44.6586 -85.4633 203° Southwest 109 125 25,000  Level Minneapolis Center
10:41AM 44.6025 -85.4975 215° Southwest 116 133 25,000  Level Minneapolis Center
10:42AM 44.5497 -85.5486 181° South 160 184 25,000  Level Minneapolis Center
10:43AM 44.4789 -85.5497 181° South 234 269 25,000  Level Minneapolis Center
10:44AM 44.4081 -85.5506 179° South 239 275 25,000  Level Minneapolis Center
10:45AM 44.3369 -85.5489 179° South 251 289 25,000  Level Minneapolis Center
10:46AM 44.2656 -85.5469 180° South 257 296 25,000  Level Minneapolis Center
10:47AM 44.2008 -85.5469 178° South 251 289 25,000  Level Minneapolis Center
10:48AM 44.1339 -85.5444 180° South 246 283 25,000  Level Minneapolis Center
10:49AM 44.0672 -85.5450 176° South 246 283 25,000  Level Minneapolis Center
10:50AM 44.0022 -85.5394 179° South 241 277 25,000  Level Minneapolis Center
10:51AM 43.9331 -85.5372 182° South 246 283 25,000  Level Minneapolis Center
10:52AM 43.8644 -85.5408 181° South 246 283 25,000  Level Minneapolis Center
10:53AM 43.7933 -85.5417 179° South 252 290 25,000  Level Minneapolis Center
10:54AM 43.7244 -85.5394 179° South 257 296 25,000  Level Minneapolis Center
10:55AM 43.6511 -85.5378 179° South 257 296 25,000  Level Minneapolis Center
10:56AM 43.5800 -85.5361 178° South 257 296 25,000  Level Minneapolis Center
10:57AM 43.5192 -85.5336 179° South 259 298 25,000  Level Chicago Center
10:58AM 43.4461 -85.5322 179° South 233 268 25,000  Level Chicago Center
10:59AM 43.3772 -85.5308 179° South 238 274 25,000  Level Chicago Center
11:00AM 43.3044 -85.5297 179° South 251 289 25,000  Level Chicago Center
11:01AM 43.2356 -85.5283 179° South 256 295 25,000  Level Chicago Center
11:02AM 43.1667 -85.5267 181° South 251 289 25,000  Level Chicago Center
11:03AM 43.0981 -85.5281 179° South 251 289 25,000  Level Chicago Center
11:04AM 43.0375 -85.5261 179° South 251 289 25,000  Level Chicago Center
11:05AM 42.9686 -85.5247 181° South 251 289 25,000  Level Chicago Center
11:06AM 42.9019 -85.5261 177° South 251 289 25,000  Level Chicago Center
11:07AM 42.8350 -85.5217 181° South 251 289 25,000  Level Chicago Center
11:08AM 42.7706 -85.5228 179° South 251 289 25,000  Level Chicago Center
11:09AM 42.7058 -85.5211 181° South 241 277 25,000  Level Chicago Center
11:10AM 42.6411 -85.5222 179° South 236 272 25,000  Level Chicago Center
11:11AM 42.5786 -85.5203 179° South 231 266 25,000  Level Chicago Center
11:12AM 42.5139 -85.5186 179° South 231 266 25,000  Level Chicago Center
11:13AM 42.4514 -85.5169 181° South 231 266 25,000  Level Chicago Center
11:14AM 42.3867 -85.5178 179° South 231 266 25,000  Level Chicago Center
11:15AM 42.3261 -85.5158 181° South 231 266 25,000  Level Chicago Center
11:16AM 42.2614 -85.5172 177° South 231 266 25,000  Level Chicago Center
11:17AM 42.2008 -85.5122 181° South 231 266 25,000  Level Chicago Center
11:18AM 42.1383 -85.5133 179° South 231 266 25,000  Level Chicago Center
11:19AM 42.0758 -85.5114 179° South 231 266 25,000  Level Chicago Center
11:20AM 42.0153 -85.5094 181° South 231 266 25,000  Level Chicago Center
11:21AM 41.9569 -85.5103 181° South 231 266 25,000  Level Chicago Center
11:22AM 41.8964 -85.5111 179° South 226 260 25,000  Level Chicago Center
11:23AM 41.8358 -85.5092 181° South 221 254 25,000  Level Chicago Center
11:24AM 41.7756 -85.5100 180° South 215 247 25,000  Level Chicago Center
11:25AM 41.7169 -85.5106 177° South 215 247 25,000  Level Chicago Center
11:26AM 41.6522 -85.5061 181° South 222 255 25,000  Level Chicago Center
11:27AM 41.5919 -85.5069 179° South 222 255 25,000  Level Chicago Center
11:28AM 41.5292 -85.5053 179° South 222 255 25,000  Level Chicago Center
11:29AM 41.4686 -85.5033 179° South 217 250 25,000  Level Chicago Center
11:30AM 41.4061 -85.5014 181° South 217 250 25,000  Level Chicago Center
11:31AM 41.3394 -85.5025 179° South 227 261 25,000  Level Chicago Center
11:32AM 41.2664 -85.5014 179° South 233 268 25,000  Level Chicago Center
11:33AM 41.1994 -85.4997 179° South 238 274 25,000 -7,020 Level Chicago Center
11:34AM 41.1328 -85.4983 179° South 238 274 11,000  Descending Chicago Center
11:35AM 41.0658 -85.4967 179° South 238 274 25,000 6,960 Climbing Chicago Center
11:36AM 40.9992 -85.4950 179° South 238 274 25,000  Level Chicago Center
11:37AM 40.9325 -85.4936 181° South 238 274 25,000  Level Chicago Center
11:38AM 40.8678 -85.4944 179° South 233 268 25,000  Level Chicago Center
11:39AM 40.8031 -85.4928 181° South 233 268 25,000  Level Chicago Center
11:40AM 40.7364 -85.4939 179° South 233 268 25,000 -7,020 Level Chicago Center
11:41AM 40.6758 -85.4922 179° South 233 268 11,000  Descending Chicago Center
11:42AM 40.6092 -85.4906 181° South 233 268 25,000 5,940 Climbing Chicago Center
11:43AM 40.5186 -85.4928 177° South 237 273 25,000  Level Indianapolis Center
11:44AM 40.4583 -85.4883 181° South 237 273 25,000 -7,020 Level Indianapolis Center
11:45AM 40.3936 -85.4892 179° South 237 273 11,000 -7,020 Descending Indianapolis Center
11:46AM 40.3311 -85.4875 165° South 237 273 11,000 6,960 Level Indianapolis Center
11:47AM 40.2733 -85.4669 187° South 237 273 25,000 6,960 Climbing Indianapolis Center
11:48AM 40.2125 -85.4761 210° Southwest 237 273 25,000  Level Indianapolis Center
11:49AM 40.1703 -85.5075 241° Southwest 237 273 25,000  Level Indianapolis Center
11:50AM 40.1486 -85.5586 280° West 237 273 25,000  Level Indianapolis Center
11:51AM 40.1542 -85.5994 314° West 237 273 25,000  Level Indianapolis Center
11:52AM 40.1747 -85.6272 10° North 237 273 25,000  Level Indianapolis Center
11:53AM 40.2011 -85.6367 18° North 25,000  Level Chicago Center
11:54AM 40.2406 -85.6317 32° Northeast 25,000  Level Chicago Center
11:55AM 40.2731 -85.6053 53° Northeast 141 162 25,000  Level Chicago Center
11:56AM 40.3006 -85.5575 67° East 160 184 25,000  Level Chicago Center
11:57AM 40.3175 -85.5047 86° East 172 198 25,000  Level Chicago Center
11:58AM 40.3214 -85.4308 104° East 186 214 25,000  Level Chicago Center
11:59AM 40.3083 -85.3608 125° Southeast 208 239 25,000  Level Chicago Center
12:00PM 40.2750 -85.2975 142° Southeast 214 246 25,000  Level Chicago Center
12:01PM 40.2294 -85.2514 162° South 224 258 25,000  Level Chicago Center
12:02PM 40.1744 -85.2275 183° South 224 258 25,000  Level Chicago Center
12:03PM 40.1225 -85.2308 194° South 224 258 25,000  Level Chicago Center
12:04PM 40.0811 -85.2442 224° Southwest 224 258 25,000  Level Chicago Center
12:05PM 40.0511 -85.2814 236° Southwest 224 258 25,000  Level Chicago Center
12:06PM 40.0356 -85.3119 251° West 224 258 25,000  Level Chicago Center
12:07PM 40.0283 -85.3397 260° West 86 99 25,000  Level Chicago Center
12:08PM 40.0233 -85.3753 327° Northwest 95 109 25,000  Level Chicago Center
12:09PM 40.0383 -85.3878 12° North 48 55 25,000  Level Chicago Center
12:10PM 40.0631 -85.3811 18° North 82 94 25,000  Level Chicago Center
12:11PM 40.0858 -85.3714 North 95 109 25,000  Level Chicago Center
12:12PM 40.1086 -85.3675 25° Northeast 90 104 25,000  Level Chicago Center
12:13PM 40.1289 -85.3553 13° North 78 90 25,000  Level Chicago Center
12:14PM 40.1517 -85.3486 19° North 78 90 25,000  Level Chicago Center
12:15PM 40.1722 -85.3392 North 78 90 25,000  Level Chicago Center
12:16PM 40.1908 -85.3353 29° Northeast 73 84 25,000 -300 Level Chicago Center
12:17PM 40.2069 -85.3236 23° Northeast 59 68 24,500 -600 Descending Chicago Center
12:18PM 40.2233 -85.3144 24° Northeast 59 68 23,800 -480 Descending Chicago Center
12:19PM 40.2336 -85.3083 17° North 54 62 23,600 -300 Descending Chicago Center
12:20PM 40.2500 -85.3019 23° Northeast 49 56 23,300 -300 Descending Chicago Center
12:21PM 40.2664 -85.2928 19° North 54 62 23,100 -300 Descending Chicago Center
12:22PM 40.2808 -85.2864 10° North 47 54 22,800 -300 Descending Chicago Center
12:23PM 40.2972 -85.2825 29° Northeast 52 60 22,500 -300 Descending Chicago Center
12:24PM 40.3178 -85.2678 North 69 79 22,300 -180 Descending Chicago Center
12:25PM 40.3322 -85.2669 27° Northeast 60 69 22,200 -5,580 Descending Chicago Center
12:26PM 40.3506 -85.2547 23° Northeast 60 69 11,000 -240 Descending Chicago Center
12:27PM 40.3669 -85.2456 133° Southeast 60 69 21,700  Climbing Chicago Center
12:28PM 40.3558 -85.2300 135° Southeast 60 69 11,000 -5,400 Descending Chicago Center
12:29PM 40.3517 -85.2247 138° Southeast 60 69 11,000  Level Chicago Center
12:30PM 40.3450 -85.2169 137° Southeast 60 69 11,000  Level Chicago Center
12:31PM 40.3386 -85.2092 137° Southeast 60 69 11,000  Level Chicago Center